Time;durP1;ratioP1;P1;durP2;ratioP2;P2;SDS_P1;SDS_P2;PMS_P1;PMS_P2;Temp;Humidity;BMP_temperature;BMP_pressure;BME280_temperature;BME280_humidity;BME280_pressure;Samples;Min_cycle;Max_cycle;Signal;HPM_P1;HPM_P2
2024/01/28 00:01:10;0.00;0.00;0.62;0.00;0.00;0.62;3.07;1.97;;;21.50;23.80;;;;;;2228325;62;20397;-67
2024/01/28 00:03:55;0.00;0.00;0.62;0.00;0.00;0.62;2.90;2.10;;;21.50;23.80;;;;;;2228660;62;20357;-67
2024/01/28 00:06:40;0.00;0.00;0.62;0.00;0.00;0.62;3.67;2.63;;;21.50;23.80;;;;;;2228616;62;20353;-66
2024/01/28 00:09:24;0.00;0.00;0.62;0.00;0.00;0.62;4.67;2.27;;;21.50;23.80;;;;;;2228438;62;20368;-66
2024/01/28 00:12:10;0.00;0.00;0.62;0.00;0.00;0.62;3.47;2.23;;;21.50;23.80;;;;;;2229244;62;20452;-66
2024/01/28 00:14:54;0.00;0.00;0.62;0.00;0.00;0.62;2.57;1.87;;;21.50;23.80;;;;;;2226257;62;20898;-66
2024/01/28 00:17:39;0.00;0.00;0.62;0.00;0.00;0.62;2.80;2.30;;;21.50;23.80;;;;;;2229226;62;20409;-66
2024/01/28 00:20:24;0.00;0.00;0.62;0.00;0.00;0.62;2.80;2.20;;;21.50;23.80;;;;;;2229535;62;20355;-66
2024/01/28 00:23:08;0.00;0.00;0.62;0.00;0.00;0.62;3.03;2.30;;;21.50;23.80;;;;;;2229138;62;20353;-66
2024/01/28 00:25:53;0.00;0.00;0.62;0.00;0.00;0.62;3.17;1.93;;;21.50;23.80;;;;;;2228694;62;20355;-67
2024/01/28 00:28:39;0.00;0.00;0.62;0.00;0.00;0.62;2.17;1.50;;;21.50;23.80;;;;;;2228547;62;20459;-66
2024/01/28 00:31:23;0.00;0.00;0.62;0.00;0.00;0.62;2.90;1.60;;;21.50;23.80;;;;;;2229487;62;20927;-66
2024/01/28 00:34:08;0.00;0.00;0.62;0.00;0.00;0.62;2.60;2.30;;;21.50;23.80;;;;;;2230174;62;20390;-68
2024/01/28 00:36:53;0.00;0.00;0.62;0.00;0.00;0.62;2.50;1.93;;;21.50;23.80;;;;;;2230908;62;20995;-66
2024/01/28 00:39:38;0.00;0.00;0.62;0.00;0.00;0.62;3.17;2.27;;;21.50;23.90;;;;;;2230958;62;20959;-66
2024/01/28 00:42:23;0.00;0.00;0.62;0.00;0.00;0.62;4.13;2.23;;;21.50;23.80;;;;;;2230758;62;20409;-66
2024/01/28 00:45:10;0.00;0.00;0.62;0.00;0.00;0.62;3.93;1.80;;;21.40;23.70;;;;;;2231014;62;20401;-67
2024/01/28 00:47:54;0.00;0.00;0.62;0.00;0.00;0.62;3.70;2.17;;;21.40;23.70;;;;;;2229884;62;20384;-67
2024/01/28 00:50:39;0.00;0.00;0.62;0.00;0.00;0.62;3.30;2.00;;;21.40;23.70;;;;;;2230387;62;20413;-67
2024/01/28 00:53:23;0.00;0.00;0.62;0.00;0.00;0.62;2.10;1.60;;;21.40;23.70;;;;;;2230176;62;20742;-70
2024/01/28 00:56:08;0.00;0.00;0.62;0.00;0.00;0.62;4.10;2.30;;;21.40;23.70;;;;;;2229964;62;20462;-67
2024/01/28 00:58:53;0.00;0.00;0.62;0.00;0.00;0.62;3.37;2.17;;;21.40;23.80;;;;;;2229316;62;20397;-66
2024/01/28 01:01:39;0.00;0.00;0.62;0.00;0.00;0.62;3.60;2.00;;;21.40;23.80;;;;;;2229109;62;20448;-68
2024/01/28 01:04:24;0.00;0.00;0.62;0.00;0.00;0.62;2.90;1.70;;;21.40;23.80;;;;;;2229129;62;20360;-67
2024/01/28 01:07:09;0.00;0.00;0.62;0.00;0.00;0.62;2.67;1.70;;;21.40;23.80;;;;;;2228454;62;20922;-66
2024/01/28 01:09:54;0.00;0.00;0.62;0.00;0.00;0.62;3.63;1.93;;;21.40;23.80;;;;;;2228921;62;20465;-65
2024/01/28 01:12:38;0.00;0.00;0.62;0.00;0.00;0.62;3.43;1.87;;;21.40;23.80;;;;;;2229712;41;20461;-66
2024/01/28 01:15:23;0.00;0.00;0.62;0.00;0.00;0.62;2.50;1.90;;;21.40;23.80;;;;;;2225629;62;20353;-68
2024/01/28 01:18:09;0.00;0.00;0.62;0.00;0.00;0.62;2.37;1.57;;;21.40;23.80;;;;;;2226915;62;20373;-67
2024/01/28 01:20:53;0.00;0.00;0.62;0.00;0.00;0.62;2.97;1.97;;;21.40;23.80;;;;;;2226417;62;20826;-66
2024/01/28 01:23:38;0.00;0.00;0.62;0.00;0.00;0.62;2.83;2.27;;;21.30;23.70;;;;;;2226490;62;20412;-66
2024/01/28 01:26:23;0.00;0.00;0.62;0.00;0.00;0.62;2.60;2.00;;;21.30;23.70;;;;;;2226368;62;20498;-67
2024/01/28 01:29:07;0.00;0.00;0.62;0.00;0.00;0.62;3.83;2.20;;;21.30;23.70;;;;;;2226222;62;20350;-66
2024/01/28 01:31:53;0.00;0.00;0.62;0.00;0.00;0.62;2.30;1.47;;;21.30;23.70;;;;;;2224916;62;20899;-66
2024/01/28 01:34:39;0.00;0.00;0.62;0.00;0.00;0.62;4.33;1.70;;;21.30;23.70;;;;;;2225122;62;20449;-67
2024/01/28 01:37:24;0.00;0.00;0.62;0.00;0.00;0.62;2.80;1.93;;;21.30;23.70;;;;;;2224918;62;20377;-67
2024/01/28 01:40:14;0.00;0.00;0.62;0.00;0.00;0.62;2.70;1.50;;;21.30;23.70;;;;;;2224645;62;20378;-67
2024/01/28 01:42:58;0.00;0.00;0.62;0.00;0.00;0.62;3.67;2.00;;;21.30;23.70;;;;;;2222118;62;20434;-66
2024/01/28 01:45:43;0.00;0.00;0.62;0.00;0.00;0.62;3.40;1.90;;;21.30;23.70;;;;;;2225115;62;20397;-69
2024/01/28 01:48:28;0.00;0.00;0.62;0.00;0.00;0.62;2.40;1.73;;;21.30;23.70;;;;;;2224516;62;20381;-67
2024/01/28 01:51:15;0.00;0.00;0.62;0.00;0.00;0.62;3.30;2.20;;;21.30;23.70;;;;;;2224976;62;20405;-67
2024/01/28 01:54:02;0.00;0.00;0.62;0.00;0.00;0.62;3.93;2.07;;;21.30;23.70;;;;;;2221538;62;20389;-67
2024/01/28 01:56:47;0.00;0.00;0.62;0.00;0.00;0.62;3.30;2.13;;;21.30;23.70;;;;;;2225024;62;20412;-67
2024/01/28 01:59:32;0.00;0.00;0.62;0.00;0.00;0.62;2.87;1.87;;;21.30;23.70;;;;;;2221803;62;20360;-68
2024/01/28 02:02:18;0.00;0.00;0.62;0.00;0.00;0.62;4.37;2.57;;;21.30;23.70;;;;;;2221905;62;20396;-68
2024/01/28 02:05:03;0.00;0.00;0.62;0.00;0.00;0.62;2.80;2.20;;;21.30;23.70;;;;;;2224816;62;20743;-66
2024/01/28 02:07:50;0.00;0.00;0.62;0.00;0.00;0.62;2.83;1.93;;;21.30;23.70;;;;;;2225064;62;20385;-67
2024/01/28 02:10:34;0.00;0.00;0.62;0.00;0.00;0.62;3.47;2.40;;;21.20;23.60;;;;;;2224933;62;21017;-67
2024/01/28 02:13:19;0.00;0.00;0.62;0.00;0.00;0.62;3.93;2.43;;;21.30;23.70;;;;;;2224981;62;20380;-67
2024/01/28 02:16:04;0.00;0.00;0.62;0.00;0.00;0.62;3.67;2.20;;;21.20;23.60;;;;;;2224879;62;20396;-67
2024/01/28 02:18:49;0.00;0.00;0.62;0.00;0.00;0.62;3.77;1.93;;;21.20;23.60;;;;;;2221823;62;20430;-66
2024/01/28 02:21:34;0.00;0.00;0.62;0.00;0.00;0.62;2.83;1.90;;;21.20;23.70;;;;;;2224817;62;20952;-67
2024/01/28 02:24:20;0.00;0.00;0.62;0.00;0.00;0.62;4.80;2.47;;;21.20;23.70;;;;;;2224979;62;20377;-67
2024/01/28 02:27:05;0.00;0.00;0.62;0.00;0.00;0.62;4.00;2.13;;;21.20;23.70;;;;;;2224546;62;20928;-67
2024/01/28 02:29:49;0.00;0.00;0.62;0.00;0.00;0.62;2.50;1.67;;;21.20;23.70;;;;;;2409520;46;20505;-68
2024/01/28 02:32:35;0.00;0.00;0.62;0.00;0.00;0.62;3.10;2.10;;;21.20;23.70;;;;;;2226577;59;20787;-67
2024/01/28 02:35:19;0.00;0.00;0.62;0.00;0.00;0.62;3.00;1.90;;;21.20;23.70;;;;;;2222067;62;20358;-67
2024/01/28 02:38:04;0.00;0.00;0.62;0.00;0.00;0.62;3.23;2.20;;;21.20;23.70;;;;;;2224843;62;20410;-67
2024/01/28 02:40:55;0.00;0.00;0.62;0.00;0.00;0.62;3.80;1.77;;;21.20;23.70;;;;;;2224652;62;20385;-67
2024/01/28 02:43:40;0.00;0.00;0.62;0.00;0.00;0.62;2.60;2.00;;;21.20;23.60;;;;;;2224971;62;20402;-68
2024/01/28 02:46:24;0.00;0.00;0.62;0.00;0.00;0.62;3.70;1.90;;;21.20;23.60;;;;;;2225024;62;20349;-68
2024/01/28 02:49:09;0.00;0.00;0.62;0.00;0.00;0.62;3.13;1.90;;;21.20;23.60;;;;;;2225036;62;20380;-67
2024/01/28 02:51:54;0.00;0.00;0.62;0.00;0.00;0.62;3.93;2.20;;;21.10;23.50;;;;;;2224763;62;20401;-68
2024/01/28 02:54:40;0.00;0.00;0.62;0.00;0.00;0.62;2.27;2.00;;;21.10;23.50;;;;;;2224968;62;20349;-67
2024/01/28 02:57:26;0.00;0.00;0.62;0.00;0.00;0.62;3.13;2.30;;;21.10;23.50;;;;;;2224982;62;20374;-67
2024/01/28 03:00:12;0.00;0.00;0.62;0.00;0.00;0.62;3.03;1.90;;;21.10;23.50;;;;;;2224897;62;20764;-67
2024/01/28 03:02:56;0.00;0.00;0.62;0.00;0.00;0.62;4.93;1.93;;;21.10;23.50;;;;;;2224976;62;20400;-67
2024/01/28 03:05:42;0.00;0.00;0.62;0.00;0.00;0.62;2.90;1.87;;;21.10;23.60;;;;;;2224718;62;20353;-67
2024/01/28 03:08:26;0.00;0.00;0.62;0.00;0.00;0.62;2.87;2.10;;;21.10;23.50;;;;;;2224617;62;20389;-67
2024/01/28 03:11:11;0.00;0.00;0.62;0.00;0.00;0.62;2.43;1.60;;;21.10;23.60;;;;;;2224511;62;20393;-66
2024/01/28 03:13:57;0.00;0.00;0.62;0.00;0.00;0.62;2.80;1.77;;;21.10;23.60;;;;;;2224642;62;20765;-65
2024/01/28 03:16:42;0.00;0.00;0.62;0.00;0.00;0.62;3.10;1.70;;;21.10;23.50;;;;;;2221546;62;20459;-66
2024/01/28 03:19:26;0.00;0.00;0.62;0.00;0.00;0.62;2.10;1.60;;;21.10;23.60;;;;;;2224925;62;20389;-68
2024/01/28 03:22:11;0.00;0.00;0.62;0.00;0.00;0.62;3.00;2.13;;;21.10;23.60;;;;;;2224692;62;20393;-67
2024/01/28 03:24:55;0.00;0.00;0.62;0.00;0.00;0.62;2.40;1.87;;;21.10;23.60;;;;;;2224623;62;20821;-66
2024/01/28 03:27:40;0.00;0.00;0.62;0.00;0.00;0.62;2.87;1.87;;;21.10;23.60;;;;;;2224615;62;20473;-69
2024/01/28 03:30:26;0.00;0.00;0.62;0.00;0.00;0.62;3.50;2.23;;;21.10;23.60;;;;;;2224674;62;20402;-67
2024/01/28 03:33:11;0.00;0.00;0.62;0.00;0.00;0.62;2.73;2.10;;;21.10;23.60;;;;;;2224896;62;20425;-67
2024/01/28 03:35:56;0.00;0.00;0.62;0.00;0.00;0.62;3.10;2.23;;;21.10;23.60;;;;;;2224541;62;20366;-68
2024/01/28 03:38:40;0.00;0.00;0.62;0.00;0.00;0.62;4.00;1.90;;;21.10;23.60;;;;;;2224380;62;21008;-68
2024/01/28 03:41:25;0.00;0.00;0.62;0.00;0.00;0.62;2.30;1.90;;;21.10;23.60;;;;;;2224412;62;20834;-67
2024/01/28 03:44:10;0.00;0.00;0.62;0.00;0.00;0.62;3.13;2.00;;;21.00;23.60;;;;;;2224523;62;20461;-68
2024/01/28 03:46:57;0.00;0.00;0.62;0.00;0.00;0.62;3.77;1.80;;;21.00;23.50;;;;;;2225197;62;20398;-67
2024/01/28 03:49:41;0.00;0.00;0.62;0.00;0.00;0.62;3.17;1.87;;;21.00;23.50;;;;;;2225125;62;20369;-66
2024/01/28 03:52:26;0.00;0.00;0.62;0.00;0.00;0.62;2.40;1.50;;;21.00;23.50;;;;;;2224895;62;20509;-68
2024/01/28 03:55:14;0.00;0.00;0.62;0.00;0.00;0.62;2.20;1.70;;;21.00;23.50;;;;;;2224764;62;20709;-66
2024/01/28 03:57:58;0.00;0.00;0.62;0.00;0.00;0.62;3.03;1.77;;;21.00;23.50;;;;;;2225306;62;20872;-67
2024/01/28 04:00:43;0.00;0.00;0.62;0.00;0.00;0.62;3.07;1.53;;;21.00;23.60;;;;;;2224732;62;20817;-67
2024/01/28 04:03:29;0.00;0.00;0.62;0.00;0.00;0.62;2.40;1.67;;;21.00;23.60;;;;;;2225573;62;20767;-67
2024/01/28 04:06:14;0.00;0.00;0.62;0.00;0.00;0.62;3.33;2.07;;;21.00;23.60;;;;;;2225223;62;20357;-69
2024/01/28 04:08:58;0.00;0.00;0.62;0.00;0.00;0.62;2.93;2.03;;;21.00;24.10;;;;;;2225202;62;20799;-69
2024/01/28 04:11:43;0.00;0.00;0.62;0.00;0.00;0.62;3.00;1.57;;;21.00;23.60;;;;;;2225200;62;20824;-67
2024/01/28 04:14:27;0.00;0.00;0.62;0.00;0.00;0.62;3.80;2.07;;;21.00;23.60;;;;;;2225239;62;20362;-67
2024/01/28 04:17:12;0.00;0.00;0.62;0.00;0.00;0.62;2.00;1.50;;;21.00;23.60;;;;;;2225183;62;20410;-67
2024/01/28 04:19:58;0.00;0.00;0.62;0.00;0.00;0.62;3.10;1.93;;;21.00;23.60;;;;;;2225375;62;20389;-66
2024/01/28 04:22:42;0.00;0.00;0.62;0.00;0.00;0.62;2.27;1.20;;;20.90;23.50;;;;;;2225308;62;20417;-66
2024/01/28 04:25:27;0.00;0.00;0.62;0.00;0.00;0.62;2.77;2.00;;;20.90;23.50;;;;;;2225415;62;20414;-69
2024/01/28 04:28:12;0.00;0.00;0.62;0.00;0.00;0.62;2.70;1.60;;;20.90;23.50;;;;;;2225149;62;20400;-66
2024/01/28 04:30:58;0.00;0.00;0.62;0.00;0.00;0.62;3.93;2.03;;;20.90;23.50;;;;;;2225093;62;20401;-70
2024/01/28 04:33:42;0.00;0.00;0.62;0.00;0.00;0.62;2.93;1.70;;;20.90;23.50;;;;;;2225583;62;20369;-66
2024/01/28 04:36:28;0.00;0.00;0.62;0.00;0.00;0.62;3.30;2.03;;;21.00;23.60;;;;;;2225201;62;20381;-67
2024/01/28 04:39:13;0.00;0.00;0.62;0.00;0.00;0.62;2.90;1.67;;;20.90;23.50;;;;;;2225195;62;20361;-66
2024/01/28 04:41:58;0.00;0.00;0.62;0.00;0.00;0.62;4.67;2.10;;;20.90;23.50;;;;;;2225011;62;20393;-67
2024/01/28 04:44:43;0.00;0.00;0.62;0.00;0.00;0.62;2.50;1.70;;;20.90;23.50;;;;;;2224997;62;20425;-67
2024/01/28 04:47:27;0.00;0.00;0.62;0.00;0.00;0.62;2.60;1.70;;;20.90;23.50;;;;;;2225048;62;20421;-68
2024/01/28 04:50:12;0.00;0.00;0.62;0.00;0.00;0.62;2.60;1.50;;;20.90;23.50;;;;;;2227591;62;20378;-67
2024/01/28 04:52:58;0.00;0.00;0.62;0.00;0.00;0.62;2.60;1.80;;;20.90;23.50;;;;;;2228059;62;20389;-68
2024/01/28 04:55:43;0.00;0.00;0.62;0.00;0.00;0.62;3.47;1.80;;;20.90;23.50;;;;;;2226915;62;20421;-67
2024/01/28 04:58:27;0.00;0.00;0.62;0.00;0.00;0.62;2.37;1.63;;;20.90;23.50;;;;;;2226085;62;20389;-69
2024/01/28 05:01:12;0.00;0.00;0.62;0.00;0.00;0.62;3.07;1.50;;;20.90;23.50;;;;;;2225761;62;20386;-68
2024/01/28 05:03:57;0.00;0.00;0.62;0.00;0.00;0.62;2.37;1.73;;;20.90;23.50;;;;;;2228138;62;20489;-67
2024/01/28 05:06:41;0.00;0.00;0.62;0.00;0.00;0.62;2.40;1.50;;;20.90;24.10;;;;;;2227426;62;20364;-68
2024/01/28 05:09:27;0.00;0.00;0.62;0.00;0.00;0.62;1.77;1.30;;;20.90;23.50;;;;;;2227028;62;20373;-67
2024/01/28 05:12:11;0.00;0.00;0.62;0.00;0.00;0.62;3.53;1.63;;;20.90;23.50;;;;;;2228182;62;20818;-67
2024/01/28 05:14:56;0.00;0.00;0.62;0.00;0.00;0.62;2.47;1.73;;;20.90;23.50;;;;;;2228068;62;20372;-68
2024/01/28 05:17:41;0.00;0.00;0.62;0.00;0.00;0.62;2.30;1.73;;;20.90;23.50;;;;;;2227925;62;20429;-67
2024/01/28 05:20:26;0.00;0.00;0.62;0.00;0.00;0.62;2.40;1.53;;;20.80;23.50;;;;;;2227536;62;21104;-68
2024/01/28 05:23:11;0.00;0.00;0.62;0.00;0.00;0.62;2.20;1.53;;;20.90;23.50;;;;;;2225981;62;20373;-67
2024/01/28 05:25:57;0.00;0.00;0.62;0.00;0.00;0.62;2.53;1.77;;;20.80;23.40;;;;;;2225246;62;20365;-69
2024/01/28 05:28:42;0.00;0.00;0.62;0.00;0.00;0.62;2.70;1.60;;;20.80;23.40;;;;;;2225300;62;20448;-68
2024/01/28 05:31:26;0.00;0.00;0.62;0.00;0.00;0.62;2.77;1.83;;;20.80;23.40;;;;;;2225504;62;21119;-68
2024/01/28 05:34:12;0.00;0.00;0.62;0.00;0.00;0.62;2.50;1.50;;;20.80;23.40;;;;;;2225400;62;20399;-68
2024/01/28 05:36:56;0.00;0.00;0.62;0.00;0.00;0.62;2.37;1.37;;;20.80;23.40;;;;;;2225220;62;20773;-70
2024/01/28 05:39:41;0.00;0.00;0.62;0.00;0.00;0.62;2.30;1.57;;;20.80;23.50;;;;;;2224898;62;20426;-67
2024/01/28 05:42:27;0.00;0.00;0.62;0.00;0.00;0.62;2.47;1.43;;;20.80;23.40;;;;;;2224741;62;20388;-67
2024/01/28 05:45:12;0.00;0.00;0.62;0.00;0.00;0.62;2.57;1.50;;;20.80;23.50;;;;;;2224932;62;20912;-67
2024/01/28 05:48:01;0.00;0.00;0.62;0.00;0.00;0.62;2.60;1.67;;;20.80;23.50;;;;;;2224979;62;20437;-67
2024/01/28 05:50:46;0.00;0.00;0.62;0.00;0.00;0.62;3.10;1.87;;;20.80;23.50;;;;;;2224746;62;20469;-68
2024/01/28 05:53:30;0.00;0.00;0.62;0.00;0.00;0.62;3.07;1.80;;;20.80;23.50;;;;;;2224971;62;20372;-68
2024/01/28 05:56:15;0.00;0.00;0.62;0.00;0.00;0.62;3.53;1.90;;;20.80;23.50;;;;;;2224847;62;20393;-67
2024/01/28 05:59:01;0.00;0.00;0.62;0.00;0.00;0.62;2.83;1.97;;;20.80;23.50;;;;;;2224802;62;20421;-67
2024/01/28 06:01:45;0.00;0.00;0.62;0.00;0.00;0.62;2.70;2.00;;;20.70;23.40;;;;;;2224747;62;20404;-68
2024/01/28 06:04:30;0.00;0.00;0.62;0.00;0.00;0.62;2.87;1.67;;;20.70;23.40;;;;;;2223381;62;20415;-70
2024/01/28 06:07:14;0.00;0.00;0.62;0.00;0.00;0.62;5.30;2.77;;;20.70;23.40;;;;;;2227202;62;20369;-68
2024/01/28 06:09:59;0.00;0.00;0.62;0.00;0.00;0.62;3.83;2.40;;;20.70;23.40;;;;;;2227721;62;20369;-68
2024/01/28 06:12:43;0.00;0.00;0.62;0.00;0.00;0.62;3.90;2.00;;;20.70;23.40;;;;;;2223482;62;20414;-67
2024/01/28 06:15:29;0.00;0.00;0.62;0.00;0.00;0.62;3.67;2.10;;;20.70;23.40;;;;;;2227552;62;20793;-67
2024/01/28 06:18:14;0.00;0.00;0.62;0.00;0.00;0.62;3.07;2.10;;;20.70;23.40;;;;;;2227899;62;21013;-68
2024/01/28 06:20:58;0.00;0.00;0.62;0.00;0.00;0.62;3.53;2.40;;;20.70;23.40;;;;;;2228365;62;20377;-67
2024/01/28 06:23:44;0.00;0.00;0.62;0.00;0.00;0.62;2.70;1.87;;;20.70;23.40;;;;;;2227331;62;20461;-68
2024/01/28 06:26:28;0.00;0.00;0.62;0.00;0.00;0.62;3.50;2.37;;;20.70;23.40;;;;;;2224792;62;20373;-68
2024/01/28 06:29:13;0.00;0.00;0.62;0.00;0.00;0.62;4.23;2.50;;;20.70;23.40;;;;;;2224631;62;20976;-67
2024/01/28 06:31:59;0.00;0.00;0.62;0.00;0.00;0.62;3.70;2.20;;;20.70;23.40;;;;;;2224535;62;20392;-67
2024/01/28 06:34:44;0.00;0.00;0.62;0.00;0.00;0.62;4.40;2.30;;;20.70;23.40;;;;;;2224769;62;20456;-68
2024/01/28 06:37:28;0.00;0.00;0.62;0.00;0.00;0.62;3.97;2.57;;;20.70;23.40;;;;;;2225060;62;20952;-68
2024/01/28 06:40:13;0.00;0.00;0.62;0.00;0.00;0.62;3.20;2.20;;;20.70;23.40;;;;;;2225027;62;20385;-68
2024/01/28 06:42:58;0.00;0.00;0.62;0.00;0.00;0.62;2.50;1.83;;;20.70;23.40;;;;;;2224666;62;20413;-71
2024/01/28 06:45:43;0.00;0.00;0.62;0.00;0.00;0.62;3.30;2.13;;;20.70;23.40;;;;;;2224721;62;20398;-68
2024/01/28 06:48:29;0.00;0.00;0.62;0.00;0.00;0.62;4.17;2.13;;;20.70;23.40;;;;;;2224007;62;20746;-68
2024/01/28 06:51:13;0.00;0.00;0.62;0.00;0.00;0.62;4.00;2.20;;;20.70;24.00;;;;;;2224127;62;20393;-68
2024/01/28 06:53:58;0.00;0.00;0.62;0.00;0.00;0.62;3.03;2.07;;;20.70;23.40;;;;;;2224819;62;20376;-68
2024/01/28 06:56:42;0.00;0.00;0.62;0.00;0.00;0.62;3.33;2.40;;;20.60;23.40;;;;;;2224457;62;20369;-67
2024/01/28 06:59:27;0.00;0.00;0.62;0.00;0.00;0.62;3.53;2.00;;;20.60;23.40;;;;;;2224721;62;20373;-67
2024/01/28 07:02:12;0.00;0.00;0.62;0.00;0.00;0.62;3.13;1.83;;;20.60;23.30;;;;;;2224034;62;20388;-68
2024/01/28 07:04:59;0.00;0.00;0.62;0.00;0.00;0.62;2.67;1.70;;;20.60;23.40;;;;;;2224498;62;20381;-68
2024/01/28 07:07:44;0.00;0.00;0.62;0.00;0.00;0.62;2.70;2.07;;;20.60;23.40;;;;;;2224050;62;20400;-68
2024/01/28 07:10:28;0.00;0.00;0.62;0.00;0.00;0.62;3.40;2.40;;;20.60;23.40;;;;;;2224339;62;20373;-68
2024/01/28 07:13:13;0.00;0.00;0.62;0.00;0.00;0.62;3.67;1.97;;;20.60;23.40;;;;;;2224632;62;20421;-68
2024/01/28 07:15:58;0.00;0.00;0.62;0.00;0.00;0.62;2.90;2.20;;;20.60;23.40;;;;;;2224797;62;20855;-68
2024/01/28 07:18:42;0.00;0.00;0.62;0.00;0.00;0.62;3.03;2.43;;;20.60;23.40;;;;;;2224413;62;20414;-67
2024/01/28 07:21:28;0.00;0.00;0.62;0.00;0.00;0.62;2.83;2.10;;;20.60;23.40;;;;;;2224778;62;20814;-68
2024/01/28 07:24:13;0.00;0.00;0.62;0.00;0.00;0.62;3.10;2.07;;;20.60;23.40;;;;;;2224795;62;20943;-68
2024/01/28 07:26:58;0.00;0.00;0.62;0.00;0.00;0.62;3.03;2.00;;;20.60;23.40;;;;;;2225210;62;20418;-68
2024/01/28 07:29:43;0.00;0.00;0.62;0.00;0.00;0.62;3.27;2.10;;;20.60;23.40;;;;;;2225168;62;20887;-67
2024/01/28 07:32:28;0.00;0.00;0.62;0.00;0.00;0.62;2.77;1.90;;;20.60;23.40;;;;;;2225117;62;20400;-67
2024/01/28 07:35:13;0.00;0.00;0.62;0.00;0.00;0.62;3.70;1.93;;;20.60;23.40;;;;;;2225531;62;20368;-68
2024/01/28 07:37:59;0.00;0.00;0.62;0.00;0.00;0.62;3.30;2.00;;;20.60;23.40;;;;;;2225326;62;20513;-67
2024/01/28 07:40:43;0.00;0.00;0.62;0.00;0.00;0.62;3.30;2.00;;;20.60;23.40;;;;;;2225009;62;20381;-68
2024/01/28 07:43:28;0.00;0.00;0.62;0.00;0.00;0.62;3.37;2.07;;;20.50;23.30;;;;;;2224891;62;20369;-67
2024/01/28 07:46:13;0.00;0.00;0.62;0.00;0.00;0.62;2.70;2.00;;;20.60;23.40;;;;;;2225104;62;20490;-69
2024/01/28 07:48:57;0.00;0.00;0.62;0.00;0.00;0.62;3.43;2.10;;;20.50;23.80;;;;;;2225497;62;20399;-68
2024/01/28 07:51:42;0.00;0.00;0.62;0.00;0.00;0.62;3.40;2.27;;;20.50;23.30;;;;;;2225192;62;21014;-68
2024/01/28 07:54:28;0.00;0.00;0.62;0.00;0.00;0.62;3.00;2.00;;;20.50;23.30;;;;;;2225672;62;20384;-70
2024/01/28 07:57:13;0.00;0.00;0.62;0.00;0.00;0.62;3.70;1.63;;;20.50;23.30;;;;;;2224893;62;20380;-69
2024/01/28 07:59:57;0.00;0.00;0.62;0.00;0.00;0.62;4.87;2.70;;;20.50;23.30;;;;;;2225125;62;20369;-67
2024/01/28 08:02:42;0.00;0.00;0.62;0.00;0.00;0.62;3.13;2.07;;;20.50;23.30;;;;;;2225209;62;20473;-67
2024/01/28 08:05:26;0.00;0.00;0.62;0.00;0.00;0.62;2.60;1.70;;;20.60;23.40;;;;;;2225156;62;20380;-68
2024/01/28 08:08:11;0.00;0.00;0.62;0.00;0.00;0.62;3.80;2.37;;;20.50;23.30;;;;;;2225182;62;20512;-69
2024/01/28 08:10:56;0.00;0.00;0.62;0.00;0.00;0.62;3.07;2.33;;;20.50;23.30;;;;;;2224936;62;20438;-66
2024/01/28 08:13:41;0.00;0.00;0.62;0.00;0.00;0.62;3.10;1.70;;;20.60;23.40;;;;;;2224924;62;20368;-66
2024/01/28 08:16:28;0.00;0.00;0.62;0.00;0.00;0.62;3.17;2.10;;;20.50;23.30;;;;;;2225279;62;20884;-67
2024/01/28 08:19:12;0.00;0.00;0.62;0.00;0.00;0.62;4.07;2.27;;;20.50;23.30;;;;;;2225051;62;20361;-66
2024/01/28 08:21:57;0.00;0.00;0.62;0.00;0.00;0.62;5.57;2.40;;;20.50;23.30;;;;;;2224958;62;20489;-68
2024/01/28 08:24:41;0.00;0.00;0.62;0.00;0.00;0.62;3.00;1.70;;;20.50;23.30;;;;;;2225224;62;20530;-67
2024/01/28 08:27:28;0.00;0.00;0.62;0.00;0.00;0.62;3.50;2.30;;;20.50;23.30;;;;;;2225287;62;20853;-67
2024/01/28 08:30:15;0.00;0.00;0.62;0.00;0.00;0.62;2.77;1.90;;;20.50;23.30;;;;;;2226145;62;20388;-67
2024/01/28 08:32:59;0.00;0.00;0.62;0.00;0.00;0.62;3.80;2.27;;;20.50;23.30;;;;;;2226379;62;20950;-68
2024/01/28 08:35:44;0.00;0.00;0.62;0.00;0.00;0.62;2.80;2.00;;;20.50;23.30;;;;;;2226808;62;20472;-66
2024/01/28 08:38:30;0.00;0.00;0.62;0.00;0.00;0.62;3.20;2.23;;;20.50;23.30;;;;;;2226359;62;20902;-67
2024/01/28 08:41:15;0.00;0.00;0.62;0.00;0.00;0.62;3.00;2.37;;;20.50;23.40;;;;;;2224613;62;20409;-67
2024/01/28 08:44:01;0.00;0.00;0.62;0.00;0.00;0.62;4.27;2.00;;;20.50;23.40;;;;;;2225384;62;20396;-67
2024/01/28 08:46:46;0.00;0.00;0.62;0.00;0.00;0.62;3.37;2.10;;;20.50;23.40;;;;;;2224621;62;20385;-70
2024/01/28 08:49:31;0.00;0.00;0.62;0.00;0.00;0.62;3.80;2.07;;;20.50;23.40;;;;;;2222223;62;20396;-67
2024/01/28 08:52:17;0.00;0.00;0.62;0.00;0.00;0.62;4.63;2.40;;;20.50;23.40;;;;;;2224626;62;20442;-67
2024/01/28 08:55:02;0.00;0.00;0.62;0.00;0.00;0.62;2.90;2.00;;;20.50;23.40;;;;;;2225240;62;20795;-68
2024/01/28 08:57:47;0.00;0.00;0.62;0.00;0.00;0.62;3.50;2.20;;;20.50;23.40;;;;;;2225378;62;20458;-67
2024/01/28 09:00:33;0.00;0.00;0.62;0.00;0.00;0.62;3.73;2.00;;;20.60;23.50;;;;;;2225670;62;20376;-67
2024/01/28 09:03:17;0.00;0.00;0.62;0.00;0.00;0.62;2.67;1.90;;;20.50;23.50;;;;;;2224776;62;20491;-67
2024/01/28 09:06:02;0.00;0.00;0.62;0.00;0.00;0.62;3.47;2.40;;;20.50;23.50;;;;;;2225321;62;20417;-69
2024/01/28 09:08:47;0.00;0.00;0.62;0.00;0.00;0.62;2.63;1.87;;;20.50;23.50;;;;;;2225111;62;20534;-68
2024/01/28 09:11:32;0.00;0.00;0.62;0.00;0.00;0.62;4.30;2.40;;;20.50;23.50;;;;;;2224567;62;20930;-67
2024/01/28 09:14:16;0.00;0.00;0.62;0.00;0.00;0.62;2.63;1.83;;;20.50;23.50;;;;;;2224582;62;20849;-67
2024/01/28 09:17:03;0.00;0.00;0.62;0.00;0.00;0.62;3.50;1.90;;;20.50;23.50;;;;;;2225254;62;20361;-66
2024/01/28 09:19:48;0.00;0.00;0.62;0.00;0.00;0.62;3.30;2.20;;;20.50;23.50;;;;;;2225250;62;20890;-66
2024/01/28 09:22:34;0.00;0.00;0.62;0.00;0.00;0.62;3.07;2.10;;;20.60;23.60;;;;;;2224681;62;20488;-68
2024/01/28 09:25:18;0.00;0.00;0.62;0.00;0.00;0.62;2.50;1.80;;;20.50;23.50;;;;;;2225211;62;20365;-69
2024/01/28 09:28:03;0.00;0.00;0.62;0.00;0.00;0.62;2.80;1.90;;;20.60;23.60;;;;;;2224854;62;20450;-66
2024/01/28 09:30:48;0.00;0.00;0.62;0.00;0.00;0.62;2.90;2.07;;;20.60;23.60;;;;;;2219385;62;20434;-66
2024/01/28 09:33:34;0.00;0.00;0.62;0.00;0.00;0.62;2.40;1.77;;;20.60;23.60;;;;;;2222149;62;20526;-67
2024/01/28 09:36:19;0.00;0.00;0.62;0.00;0.00;0.62;2.90;1.83;;;20.60;23.70;;;;;;2225367;62;20940;-67
2024/01/28 09:39:04;0.00;0.00;0.62;0.00;0.00;0.62;3.30;1.90;;;20.60;23.70;;;;;;2225271;62;20378;-66
2024/01/28 09:42:00;0.00;0.00;0.62;0.00;0.00;0.62;2.80;1.93;;;20.60;23.70;;;;;;2225109;62;20951;-66
2024/01/28 09:44:45;0.00;0.00;0.62;0.00;0.00;0.62;2.53;1.63;;;20.60;23.70;;;;;;2225134;62;20368;-69
2024/01/28 09:47:32;0.00;0.00;0.62;0.00;0.00;0.62;2.73;1.83;;;20.60;24.20;;;;;;2225085;62;20447;-66
2024/01/28 09:50:19;0.00;0.00;0.62;0.00;0.00;0.62;3.53;2.43;;;20.70;23.80;;;;;;2222018;62;20381;-69
2024/01/28 09:53:04;0.00;0.00;0.62;0.00;0.00;0.62;6.00;3.43;;;20.70;23.80;;;;;;2225125;62;20538;-66
2024/01/28 09:55:49;0.00;0.00;0.62;0.00;0.00;0.62;5.50;4.00;;;20.70;23.80;;;;;;2225272;62;20839;-70
2024/01/28 09:58:34;0.00;0.00;0.62;0.00;0.00;0.62;4.27;3.33;;;20.70;23.80;;;;;;2224966;62;20482;-67
2024/01/28 10:01:18;0.00;0.00;0.62;0.00;0.00;0.62;6.60;4.77;;;20.70;23.80;;;;;;2221831;62;20924;-67
2024/01/28 10:04:03;0.00;0.00;0.62;0.00;0.00;0.62;7.00;5.43;;;20.70;23.80;;;;;;2225002;62;20354;-68
2024/01/28 10:06:49;0.00;0.00;0.62;0.00;0.00;0.62;6.30;5.40;;;20.70;23.80;;;;;;2225101;62;20412;-69
2024/01/28 10:09:34;0.00;0.00;0.62;0.00;0.00;0.62;7.47;6.00;;;20.70;23.80;;;;;;2224956;62;20908;-65
2024/01/28 10:12:18;0.00;0.00;0.62;0.00;0.00;0.62;8.53;5.40;;;20.70;23.80;;;;;;2225116;62;20394;-66
2024/01/28 10:15:16;0.00;0.00;0.62;0.00;0.00;0.62;6.17;4.47;;;20.70;24.30;;;;;;2221994;62;20354;-70
2024/01/28 10:18:00;0.00;0.00;0.62;0.00;0.00;0.62;6.00;4.50;;;20.80;23.90;;;;;;2225046;62;20354;-67
2024/01/28 10:20:48;0.00;0.00;0.62;0.00;0.00;0.62;7.30;3.93;;;20.80;23.90;;;;;;2224983;62;20729;-67
2024/01/28 10:23:36;0.00;0.00;0.62;0.00;0.00;0.62;5.10;3.90;;;20.80;23.90;;;;;;2224884;62;20377;-67
2024/01/28 10:26:21;0.00;0.00;0.62;0.00;0.00;0.62;6.20;5.07;;;20.80;23.90;;;;;;2221907;62;20499;-66
2024/01/28 10:29:09;0.00;0.00;0.62;0.00;0.00;0.62;7.00;5.10;;;20.80;23.90;;;;;;2224926;62;20405;-67
2024/01/28 10:31:59;0.00;0.00;0.62;0.00;0.00;0.62;7.37;5.37;;;20.90;23.90;;;;;;2225028;62;20427;-67
2024/01/28 10:34:44;0.00;0.00;0.62;0.00;0.00;0.62;7.83;5.77;;;20.90;23.90;;;;;;2225066;62;20376;-68
2024/01/28 10:37:31;0.00;0.00;0.62;0.00;0.00;0.62;6.40;4.93;;;20.90;23.90;;;;;;2221719;62;20353;-67
2024/01/28 10:40:18;0.00;0.00;0.62;0.00;0.00;0.62;6.23;4.70;;;20.90;23.90;;;;;;2225117;62;20518;-67
2024/01/28 10:43:10;0.00;0.00;0.62;0.00;0.00;0.62;8.40;5.17;;;20.90;23.90;;;;;;2224849;62;20441;-67
2024/01/28 10:45:57;0.00;0.00;0.62;0.00;0.00;0.62;7.13;5.13;;;20.90;23.90;;;;;;2224909;62;20406;-65
2024/01/28 10:48:50;0.00;0.00;0.62;0.00;0.00;0.62;8.33;5.37;;;20.90;23.90;;;;;;2224852;62;20472;-68
2024/01/28 10:51:38;0.00;0.00;0.62;0.00;0.00;0.62;7.07;5.23;;;20.90;23.90;;;;;;2221834;62;20411;-65